sensor_id;sensor_type;location;lat;lon;timestamp;P1;durP1;ratioP1;P2;durP2;ratioP2
25915;SDS011;13719;48.188;11.618;2023-12-20T00:01:50;1.45;;;1.20;;
25915;SDS011;13719;48.188;11.618;2023-12-20T00:04:19;2.33;;;1.67;;
25915;SDS011;13719;48.188;11.618;2023-12-20T00:06:47;1.75;;;1.33;;
25915;SDS011;13719;48.188;11.618;2023-12-20T00:09:16;1.50;;;1.00;;
25915;SDS011;13719;48.188;11.618;2023-12-20T00:11:44;2.63;;;1.30;;
25915;SDS011;13719;48.188;11.618;2023-12-20T00:14:13;1.80;;;1.13;;
25915;SDS011;13719;48.188;11.618;2023-12-20T00:16:41;1.73;;;1.50;;
25915;SDS011;13719;48.188;11.618;2023-12-20T00:19:11;3.28;;;1.33;;
25915;SDS011;13719;48.188;11.618;2023-12-20T00:21:40;2.20;;;1.50;;
25915;SDS011;13719;48.188;11.618;2023-12-20T00:24:08;1.98;;;1.23;;
25915;SDS011;13719;48.188;11.618;2023-12-20T00:26:37;2.42;;;1.27;;
25915;SDS011;13719;48.188;11.618;2023-12-20T00:29:05;1.92;;;1.40;;
25915;SDS011;13719;48.188;11.618;2023-12-20T00:31:34;1.45;;;1.15;;
25915;SDS011;13719;48.188;11.618;2023-12-20T00:34:02;2.67;;;1.55;;
25915;SDS011;13719;48.188;11.618;2023-12-20T00:36:32;2.00;;;1.73;;
25915;SDS011;13719;48.188;11.618;2023-12-20T00:39:01;2.67;;;1.70;;
25915;SDS011;13719;48.188;11.618;2023-12-20T00:41:30;2.40;;;1.23;;
25915;SDS011;13719;48.188;11.618;2023-12-20T00:43:58;1.40;;;1.25;;
25915;SDS011;13719;48.188;11.618;2023-12-20T00:46:27;5.38;;;1.40;;
25915;SDS011;13719;48.188;11.618;2023-12-20T00:48:55;2.10;;;1.33;;
25915;SDS011;13719;48.188;11.618;2023-12-20T00:51:24;2.50;;;1.30;;
25915;SDS011;13719;48.188;11.618;2023-12-20T00:53:53;2.30;;;1.42;;
25915;SDS011;13719;48.188;11.618;2023-12-20T00:56:22;2.67;;;1.10;;
25915;SDS011;13719;48.188;11.618;2023-12-20T00:58:50;1.20;;;0.93;;
25915;SDS011;13719;48.188;11.618;2023-12-20T01:01:19;3.17;;;1.38;;
25915;SDS011;13719;48.188;11.618;2023-12-20T01:03:47;1.67;;;1.30;;
25915;SDS011;13719;48.188;11.618;2023-12-20T01:06:17;1.30;;;1.20;;
25915;SDS011;13719;48.188;11.618;2023-12-20T01:08:46;1.83;;;1.27;;
25915;SDS011;13719;48.188;11.618;2023-12-20T01:11:16;1.42;;;1.20;;
25915;SDS011;13719;48.188;11.618;2023-12-20T01:13:44;1.33;;;1.00;;
25915;SDS011;13719;48.188;11.618;2023-12-20T01:16:13;1.20;;;1.10;;
25915;SDS011;13719;48.188;11.618;2023-12-20T01:18:42;2.42;;;1.38;;
25915;SDS011;13719;48.188;11.618;2023-12-20T01:21:11;1.13;;;1.02;;
25915;SDS011;13719;48.188;11.618;2023-12-20T01:23:39;1.30;;;1.20;;
25915;SDS011;13719;48.188;11.618;2023-12-20T01:26:08;1.38;;;1.25;;
25915;SDS011;13719;48.188;11.618;2023-12-20T01:28:39;1.88;;;1.30;;
25915;SDS011;13719;48.188;11.618;2023-12-20T01:31:08;1.42;;;1.20;;
25915;SDS011;13719;48.188;11.618;2023-12-20T01:33:36;1.50;;;1.10;;
25915;SDS011;13719;48.188;11.618;2023-12-20T01:36:05;1.13;;;1.00;;
25915;SDS011;13719;48.188;11.618;2023-12-20T01:38:34;1.30;;;1.15;;
25915;SDS011;13719;48.188;11.618;2023-12-20T01:41:02;2.20;;;1.10;;
25915;SDS011;13719;48.188;11.618;2023-12-20T01:43:31;1.48;;;1.20;;
25915;SDS011;13719;48.188;11.618;2023-12-20T01:46:14;1.17;;;0.90;;
25915;SDS011;13719;48.188;11.618;2023-12-20T01:48:43;1.13;;;0.98;;
25915;SDS011;13719;48.188;11.618;2023-12-20T01:51:12;2.15;;;1.02;;
25915;SDS011;13719;48.188;11.618;2023-12-20T01:53:40;1.38;;;0.98;;
25915;SDS011;13719;48.188;11.618;2023-12-20T01:56:09;1.52;;;1.17;;
25915;SDS011;13719;48.188;11.618;2023-12-20T01:58:39;0.90;;;0.77;;
25915;SDS011;13719;48.188;11.618;2023-12-20T02:01:11;0.90;;;0.88;;
25915;SDS011;13719;48.188;11.618;2023-12-20T02:03:41;0.82;;;0.73;;
25915;SDS011;13719;48.188;11.618;2023-12-20T02:06:10;1.20;;;1.05;;
25915;SDS011;13719;48.188;11.618;2023-12-20T02:08:39;1.08;;;0.90;;
25915;SDS011;13719;48.188;11.618;2023-12-20T02:11:08;1.55;;;1.10;;
25915;SDS011;13719;48.188;11.618;2023-12-20T02:13:38;2.13;;;1.02;;
25915;SDS011;13719;48.188;11.618;2023-12-20T02:16:07;0.82;;;0.82;;
25915;SDS011;13719;48.188;11.618;2023-12-20T02:18:35;1.00;;;0.88;;
25915;SDS011;13719;48.188;11.618;2023-12-20T02:21:05;0.90;;;0.82;;
25915;SDS011;13719;48.188;11.618;2023-12-20T02:23:35;1.67;;;1.10;;
25915;SDS011;13719;48.188;11.618;2023-12-20T02:26:04;1.55;;;1.17;;
25915;SDS011;13719;48.188;11.618;2023-12-20T02:28:33;1.80;;;0.90;;
25915;SDS011;13719;48.188;11.618;2023-12-20T02:31:02;0.98;;;0.80;;
25915;SDS011;13719;48.188;11.618;2023-12-20T02:33:31;0.82;;;0.75;;
25915;SDS011;13719;48.188;11.618;2023-12-20T02:35:59;1.27;;;0.90;;
25915;SDS011;13719;48.188;11.618;2023-12-20T02:38:28;2.60;;;1.10;;
25915;SDS011;13719;48.188;11.618;2023-12-20T02:40:57;1.05;;;0.90;;
25915;SDS011;13719;48.188;11.618;2023-12-20T02:43:26;2.05;;;0.80;;
25915;SDS011;13719;48.188;11.618;2023-12-20T02:45:54;1.20;;;0.82;;
25915;SDS011;13719;48.188;11.618;2023-12-20T02:48:23;0.75;;;0.70;;
25915;SDS011;13719;48.188;11.618;2023-12-20T02:50:51;1.67;;;0.90;;
25915;SDS011;13719;48.188;11.618;2023-12-20T02:53:20;1.00;;;0.90;;
25915;SDS011;13719;48.188;11.618;2023-12-20T02:55:48;1.10;;;0.88;;
25915;SDS011;13719;48.188;11.618;2023-12-20T02:58:19;0.70;;;0.60;;
25915;SDS011;13719;48.188;11.618;2023-12-20T03:00:47;0.70;;;0.70;;
25915;SDS011;13719;48.188;11.618;2023-12-20T03:03:16;0.75;;;0.75;;
25915;SDS011;13719;48.188;11.618;2023-12-20T03:05:43;0.90;;;0.80;;
25915;SDS011;13719;48.188;11.618;2023-12-20T03:08:13;0.93;;;0.70;;
25915;SDS011;13719;48.188;11.618;2023-12-20T03:10:41;0.77;;;0.70;;
25915;SDS011;13719;48.188;11.618;2023-12-20T03:13:10;0.85;;;0.60;;
25915;SDS011;13719;48.188;11.618;2023-12-20T03:15:40;0.60;;;0.60;;
25915;SDS011;13719;48.188;11.618;2023-12-20T03:18:09;1.05;;;0.70;;
25915;SDS011;13719;48.188;11.618;2023-12-20T03:20:37;0.98;;;0.70;;
25915;SDS011;13719;48.188;11.618;2023-12-20T03:23:07;0.52;;;0.52;;
25915;SDS011;13719;48.188;11.618;2023-12-20T03:25:36;0.98;;;0.90;;
25915;SDS011;13719;48.188;11.618;2023-12-20T03:28:04;0.63;;;0.60;;
25915;SDS011;13719;48.188;11.618;2023-12-20T03:30:33;0.60;;;0.60;;
25915;SDS011;13719;48.188;11.618;2023-12-20T03:33:03;0.57;;;0.57;;
25915;SDS011;13719;48.188;11.618;2023-12-20T03:35:32;0.50;;;0.50;;
25915;SDS011;13719;48.188;11.618;2023-12-20T03:38:00;0.63;;;0.63;;
25915;SDS011;13719;48.188;11.618;2023-12-20T03:40:29;0.60;;;0.57;;
25915;SDS011;13719;48.188;11.618;2023-12-20T03:42:57;0.70;;;0.50;;
25915;SDS011;13719;48.188;11.618;2023-12-20T03:45:26;1.58;;;0.70;;
25915;SDS011;13719;48.188;11.618;2023-12-20T03:47:54;0.60;;;0.60;;
25915;SDS011;13719;48.188;11.618;2023-12-20T03:50:24;0.98;;;0.57;;
25915;SDS011;13719;48.188;11.618;2023-12-20T03:52:53;1.75;;;0.50;;
25915;SDS011;13719;48.188;11.618;2023-12-20T03:55:21;0.73;;;0.70;;
25915;SDS011;13719;48.188;11.618;2023-12-20T03:57:50;0.60;;;0.60;;
25915;SDS011;13719;48.188;11.618;2023-12-20T04:00:19;0.77;;;0.65;;
25915;SDS011;13719;48.188;11.618;2023-12-20T04:02:47;0.60;;;0.60;;
25915;SDS011;13719;48.188;11.618;2023-12-20T04:05:16;0.85;;;0.70;;
25915;SDS011;13719;48.188;11.618;2023-12-20T04:07:46;0.65;;;0.60;;
25915;SDS011;13719;48.188;11.618;2023-12-20T04:10:16;0.70;;;0.70;;
25915;SDS011;13719;48.188;11.618;2023-12-20T04:12:45;0.55;;;0.50;;
25915;SDS011;13719;48.188;11.618;2023-12-20T04:15:14;0.47;;;0.47;;
25915;SDS011;13719;48.188;11.618;2023-12-20T04:17:42;0.60;;;0.60;;
25915;SDS011;13719;48.188;11.618;2023-12-20T04:20:11;0.95;;;0.60;;
25915;SDS011;13719;48.188;11.618;2023-12-20T04:22:40;0.63;;;0.63;;
25915;SDS011;13719;48.188;11.618;2023-12-20T04:25:10;1.13;;;0.70;;
25915;SDS011;13719;48.188;11.618;2023-12-20T04:27:38;0.70;;;0.70;;
25915;SDS011;13719;48.188;11.618;2023-12-20T04:30:07;1.00;;;0.68;;
25915;SDS011;13719;48.188;11.618;2023-12-20T04:32:36;0.52;;;0.52;;
25915;SDS011;13719;48.188;11.618;2023-12-20T04:35:05;0.82;;;0.70;;
25915;SDS011;13719;48.188;11.618;2023-12-20T04:37:35;1.23;;;0.75;;
25915;SDS011;13719;48.188;11.618;2023-12-20T04:40:03;0.73;;;0.60;;
25915;SDS011;13719;48.188;11.618;2023-12-20T04:42:34;0.75;;;0.70;;
25915;SDS011;13719;48.188;11.618;2023-12-20T04:45:03;0.88;;;0.75;;
25915;SDS011;13719;48.188;11.618;2023-12-20T04:47:31;1.00;;;0.90;;
25915;SDS011;13719;48.188;11.618;2023-12-20T04:50:00;0.70;;;0.70;;
25915;SDS011;13719;48.188;11.618;2023-12-20T04:52:29;0.77;;;0.70;;
25915;SDS011;13719;48.188;11.618;2023-12-20T04:54:58;0.95;;;0.80;;
25915;SDS011;13719;48.188;11.618;2023-12-20T04:57:27;1.05;;;0.90;;
25915;SDS011;13719;48.188;11.618;2023-12-20T04:59:57;1.48;;;1.05;;
25915;SDS011;13719;48.188;11.618;2023-12-20T05:02:25;1.10;;;1.00;;
25915;SDS011;13719;48.188;11.618;2023-12-20T05:04:54;1.08;;;0.90;;
25915;SDS011;13719;48.188;11.618;2023-12-20T05:07:22;2.00;;;1.10;;
25915;SDS011;13719;48.188;11.618;2023-12-20T05:09:51;1.48;;;1.27;;
25915;SDS011;13719;48.188;11.618;2023-12-20T05:12:20;2.63;;;0.90;;
25915;SDS011;13719;48.188;11.618;2023-12-20T05:14:48;1.13;;;1.00;;
25915;SDS011;13719;48.188;11.618;2023-12-20T05:17:18;1.00;;;0.80;;
25915;SDS011;13719;48.188;11.618;2023-12-20T05:19:47;2.47;;;1.30;;
25915;SDS011;13719;48.188;11.618;2023-12-20T05:22:16;1.45;;;1.02;;
25915;SDS011;13719;48.188;11.618;2023-12-20T05:24:45;2.35;;;1.00;;
25915;SDS011;13719;48.188;11.618;2023-12-20T05:27:13;3.22;;;1.48;;
25915;SDS011;13719;48.188;11.618;2023-12-20T05:29:42;1.38;;;1.10;;
25915;SDS011;13719;48.188;11.618;2023-12-20T05:32:10;1.35;;;1.08;;
25915;SDS011;13719;48.188;11.618;2023-12-20T05:34:40;2.88;;;1.73;;
25915;SDS011;13719;48.188;11.618;2023-12-20T05:37:09;4.43;;;1.83;;
25915;SDS011;13719;48.188;11.618;2023-12-20T05:39:38;2.47;;;1.27;;
25915;SDS011;13719;48.188;11.618;2023-12-20T05:42:06;2.03;;;1.48;;
25915;SDS011;13719;48.188;11.618;2023-12-20T05:44:34;1.98;;;1.33;;
25915;SDS011;13719;48.188;11.618;2023-12-20T05:47:03;2.85;;;1.40;;
25915;SDS011;13719;48.188;11.618;2023-12-20T05:49:32;2.28;;;1.60;;
25915;SDS011;13719;48.188;11.618;2023-12-20T05:52:02;2.58;;;1.55;;
25915;SDS011;13719;48.188;11.618;2023-12-20T05:54:31;1.83;;;1.50;;
25915;SDS011;13719;48.188;11.618;2023-12-20T05:56:59;1.73;;;1.30;;
25915;SDS011;13719;48.188;11.618;2023-12-20T05:59:28;1.65;;;1.10;;
25915;SDS011;13719;48.188;11.618;2023-12-20T06:01:56;1.23;;;1.13;;
25915;SDS011;13719;48.188;11.618;2023-12-20T06:04:25;2.72;;;1.25;;
25915;SDS011;13719;48.188;11.618;2023-12-20T06:06:53;1.42;;;1.20;;
25915;SDS011;13719;48.188;11.618;2023-12-20T06:09:23;2.75;;;1.42;;
25915;SDS011;13719;48.188;11.618;2023-12-20T06:11:56;1.55;;;1.00;;
25915;SDS011;13719;48.188;11.618;2023-12-20T06:14:25;4.75;;;1.20;;
25915;SDS011;13719;48.188;11.618;2023-12-20T06:16:53;2.05;;;1.20;;
25915;SDS011;13719;48.188;11.618;2023-12-20T06:19:21;1.42;;;1.30;;
25915;SDS011;13719;48.188;11.618;2023-12-20T06:21:50;2.33;;;1.45;;
25915;SDS011;13719;48.188;11.618;2023-12-20T06:24:18;2.22;;;1.17;;
25915;SDS011;13719;48.188;11.618;2023-12-20T06:26:49;2.10;;;1.20;;
25915;SDS011;13719;48.188;11.618;2023-12-20T06:29:17;1.92;;;1.33;;
25915;SDS011;13719;48.188;11.618;2023-12-20T06:31:46;2.08;;;1.27;;
25915;SDS011;13719;48.188;11.618;2023-12-20T06:34:14;1.50;;;1.40;;
25915;SDS011;13719;48.188;11.618;2023-12-20T06:36:43;1.73;;;1.17;;
25915;SDS011;13719;48.188;11.618;2023-12-20T06:39:12;5.57;;;1.52;;
25915;SDS011;13719;48.188;11.618;2023-12-20T06:41:40;3.13;;;1.40;;
25915;SDS011;13719;48.188;11.618;2023-12-20T06:44:10;1.10;;;1.00;;
25915;SDS011;13719;48.188;11.618;2023-12-20T06:46:39;2.90;;;1.42;;
25915;SDS011;13719;48.188;11.618;2023-12-20T06:49:07;1.30;;;1.10;;
25915;SDS011;13719;48.188;11.618;2023-12-20T06:51:36;1.63;;;1.30;;
25915;SDS011;13719;48.188;11.618;2023-12-20T06:54:04;3.58;;;1.63;;
25915;SDS011;13719;48.188;11.618;2023-12-20T06:56:33;2.25;;;1.38;;
25915;SDS011;13719;48.188;11.618;2023-12-20T06:59:01;3.30;;;1.50;;
25915;SDS011;13719;48.188;11.618;2023-12-20T07:01:31;1.77;;;1.20;;
25915;SDS011;13719;48.188;11.618;2023-12-20T07:04:00;2.38;;;1.25;;
25915;SDS011;13719;48.188;11.618;2023-12-20T07:06:28;1.98;;;1.25;;
25915;SDS011;13719;48.188;11.618;2023-12-20T07:08:57;1.75;;;1.33;;
25915;SDS011;13719;48.188;11.618;2023-12-20T07:11:25;2.35;;;1.40;;
25915;SDS011;13719;48.188;11.618;2023-12-20T07:13:54;3.88;;;1.33;;
25915;SDS011;13719;48.188;11.618;2023-12-20T07:16:22;1.70;;;1.17;;
25915;SDS011;13719;48.188;11.618;2023-12-20T07:18:53;2.92;;;1.30;;
25915;SDS011;13719;48.188;11.618;2023-12-20T07:21:22;1.80;;;1.30;;
25915;SDS011;13719;48.188;11.618;2023-12-20T07:23:51;1.27;;;1.15;;
25915;SDS011;13719;48.188;11.618;2023-12-20T07:26:20;1.63;;;1.10;;
25915;SDS011;13719;48.188;11.618;2023-12-20T07:28:48;0.95;;;0.88;;
25915;SDS011;13719;48.188;11.618;2023-12-20T07:31:17;1.27;;;1.00;;
25915;SDS011;13719;48.188;11.618;2023-12-20T07:33:45;0.82;;;0.82;;
25915;SDS011;13719;48.188;11.618;2023-12-20T07:36:15;1.77;;;1.25;;
25915;SDS011;13719;48.188;11.618;2023-12-20T07:38:44;0.80;;;0.80;;
25915;SDS011;13719;48.188;11.618;2023-12-20T07:41:13;1.35;;;0.90;;
25915;SDS011;13719;48.188;11.618;2023-12-20T07:43:42;1.27;;;0.98;;
25915;SDS011;13719;48.188;11.618;2023-12-20T07:46:10;1.25;;;0.82;;
25915;SDS011;13719;48.188;11.618;2023-12-20T07:48:39;2.42;;;0.80;;
25915;SDS011;13719;48.188;11.618;2023-12-20T07:51:11;1.00;;;0.90;;
25915;SDS011;13719;48.188;11.618;2023-12-20T07:53:41;0.70;;;0.70;;
25915;SDS011;13719;48.188;11.618;2023-12-20T07:56:15;1.35;;;0.90;;
25915;SDS011;13719;48.188;11.618;2023-12-20T07:58:44;0.80;;;0.80;;
25915;SDS011;13719;48.188;11.618;2023-12-20T08:03:48;0.70;;;0.65;;
25915;SDS011;13719;48.188;11.618;2023-12-20T08:06:18;0.73;;;0.73;;
25915;SDS011;13719;48.188;11.618;2023-12-20T08:08:48;0.60;;;0.60;;
25915;SDS011;13719;48.188;11.618;2023-12-20T08:11:27;1.17;;;0.73;;
25915;SDS011;13719;48.188;11.618;2023-12-20T08:13:56;1.02;;;0.70;;
25915;SDS011;13719;48.188;11.618;2023-12-20T08:16:24;1.67;;;0.82;;
25915;SDS011;13719;48.188;11.618;2023-12-20T08:18:53;0.70;;;0.70;;
25915;SDS011;13719;48.188;11.618;2023-12-20T08:21:22;1.33;;;0.70;;
25915;SDS011;13719;48.188;11.618;2023-12-20T08:23:52;1.00;;;0.80;;
25915;SDS011;13719;48.188;11.618;2023-12-20T08:26:21;1.75;;;0.65;;
25915;SDS011;13719;48.188;11.618;2023-12-20T08:28:50;0.70;;;0.70;;
25915;SDS011;13719;48.188;11.618;2023-12-20T08:31:19;1.45;;;0.65;;
25915;SDS011;13719;48.188;11.618;2023-12-20T08:33:49;2.22;;;0.85;;
25915;SDS011;13719;48.188;11.618;2023-12-20T08:36:19;0.93;;;0.70;;
25915;SDS011;13719;48.188;11.618;2023-12-20T08:38:51;0.82;;;0.60;;
25915;SDS011;13719;48.188;11.618;2023-12-20T08:41:20;0.70;;;0.70;;
25915;SDS011;13719;48.188;11.618;2023-12-20T08:43:48;1.23;;;0.80;;
25915;SDS011;13719;48.188;11.618;2023-12-20T08:46:17;1.00;;;0.68;;
25915;SDS011;13719;48.188;11.618;2023-12-20T08:48:46;0.70;;;0.63;;
25915;SDS011;13719;48.188;11.618;2023-12-20T08:51:15;0.60;;;0.60;;
25915;SDS011;13719;48.188;11.618;2023-12-20T08:53:43;0.70;;;0.70;;
25915;SDS011;13719;48.188;11.618;2023-12-20T08:56:15;1.63;;;0.95;;
25915;SDS011;13719;48.188;11.618;2023-12-20T08:58:44;0.60;;;0.60;;
25915;SDS011;13719;48.188;11.618;2023-12-20T09:01:13;1.10;;;0.80;;
25915;SDS011;13719;48.188;11.618;2023-12-20T09:03:42;0.80;;;0.68;;
25915;SDS011;13719;48.188;11.618;2023-12-20T09:06:11;0.60;;;0.60;;
25915;SDS011;13719;48.188;11.618;2023-12-20T09:08:39;0.70;;;0.70;;
25915;SDS011;13719;48.188;11.618;2023-12-20T09:11:08;0.68;;;0.68;;
25915;SDS011;13719;48.188;11.618;2023-12-20T09:13:38;2.65;;;0.90;;
25915;SDS011;13719;48.188;11.618;2023-12-20T09:16:07;0.70;;;0.70;;
25915;SDS011;13719;48.188;11.618;2023-12-20T09:18:35;0.80;;;0.80;;
25915;SDS011;13719;48.188;11.618;2023-12-20T09:21:04;0.82;;;0.82;;
25915;SDS011;13719;48.188;11.618;2023-12-20T09:23:32;1.52;;;0.60;;
25915;SDS011;13719;48.188;11.618;2023-12-20T09:26:01;1.20;;;0.70;;
25915;SDS011;13719;48.188;11.618;2023-12-20T09:28:30;0.70;;;0.68;;
25915;SDS011;13719;48.188;11.618;2023-12-20T09:31:05;0.60;;;0.60;;
25915;SDS011;13719;48.188;11.618;2023-12-20T09:33:34;1.48;;;0.95;;
25915;SDS011;13719;48.188;11.618;2023-12-20T09:36:03;0.73;;;0.63;;
25915;SDS011;13719;48.188;11.618;2023-12-20T09:38:33;2.80;;;1.05;;
25915;SDS011;13719;48.188;11.618;2023-12-20T09:41:02;0.82;;;0.70;;
25915;SDS011;13719;48.188;11.618;2023-12-20T09:43:32;1.27;;;0.80;;
25915;SDS011;13719;48.188;11.618;2023-12-20T09:46:05;0.70;;;0.70;;
25915;SDS011;13719;48.188;11.618;2023-12-20T09:48:35;0.82;;;0.82;;
25915;SDS011;13719;48.188;11.618;2023-12-20T09:51:04;0.80;;;0.80;;
25915;SDS011;13719;48.188;11.618;2023-12-20T09:53:33;0.70;;;0.70;;
25915;SDS011;13719;48.188;11.618;2023-12-20T09:56:03;0.73;;;0.70;;
25915;SDS011;13719;48.188;11.618;2023-12-20T09:58:32;0.70;;;0.70;;
25915;SDS011;13719;48.188;11.618;2023-12-20T10:01:00;1.25;;;0.90;;
25915;SDS011;13719;48.188;11.618;2023-12-20T10:03:30;0.80;;;0.80;;
25915;SDS011;13719;48.188;11.618;2023-12-20T10:06:00;1.48;;;0.80;;
25915;SDS011;13719;48.188;11.618;2023-12-20T10:08:29;0.90;;;0.85;;
25915;SDS011;13719;48.188;11.618;2023-12-20T10:10:58;1.58;;;0.75;;
25915;SDS011;13719;48.188;11.618;2023-12-20T10:13:29;0.75;;;0.75;;
25915;SDS011;13719;48.188;11.618;2023-12-20T10:15:59;1.67;;;0.80;;
25915;SDS011;13719;48.188;11.618;2023-12-20T10:18:28;1.08;;;0.88;;
25915;SDS011;13719;48.188;11.618;2023-12-20T10:21:06;1.05;;;0.93;;
25915;SDS011;13719;48.188;11.618;2023-12-20T10:23:36;0.82;;;0.82;;
25915;SDS011;13719;48.188;11.618;2023-12-20T10:26:06;1.77;;;1.17;;
25915;SDS011;13719;48.188;11.618;2023-12-20T10:28:36;1.10;;;1.00;;
25915;SDS011;13719;48.188;11.618;2023-12-20T10:31:05;0.80;;;0.80;;
25915;SDS011;13719;48.188;11.618;2023-12-20T10:33:33;3.20;;;1.13;;
25915;SDS011;13719;48.188;11.618;2023-12-20T10:36:02;0.93;;;0.88;;
25915;SDS011;13719;48.188;11.618;2023-12-20T10:38:32;0.80;;;0.80;;
25915;SDS011;13719;48.188;11.618;2023-12-20T10:41:02;1.00;;;0.90;;
25915;SDS011;13719;48.188;11.618;2023-12-20T10:43:32;1.02;;;0.93;;
25915;SDS011;13719;48.188;11.618;2023-12-20T10:46:02;0.70;;;0.70;;
25915;SDS011;13719;48.188;11.618;2023-12-20T10:48:31;1.25;;;0.90;;
25915;SDS011;13719;48.188;11.618;2023-12-20T10:51:00;0.80;;;0.80;;
25915;SDS011;13719;48.188;11.618;2023-12-20T10:53:29;2.03;;;0.93;;
25915;SDS011;13719;48.188;11.618;2023-12-20T10:56:00;0.75;;;0.75;;
25915;SDS011;13719;48.188;11.618;2023-12-20T10:58:28;0.70;;;0.70;;
25915;SDS011;13719;48.188;11.618;2023-12-20T11:00:59;1.20;;;0.85;;
25915;SDS011;13719;48.188;11.618;2023-12-20T11:03:30;0.82;;;0.70;;
25915;SDS011;13719;48.188;11.618;2023-12-20T11:06:02;0.70;;;0.68;;
25915;SDS011;13719;48.188;11.618;2023-12-20T11:08:32;1.25;;;0.93;;
25915;SDS011;13719;48.188;11.618;2023-12-20T11:11:04;1.00;;;0.70;;
25915;SDS011;13719;48.188;11.618;2023-12-20T11:13:35;0.70;;;0.70;;
25915;SDS011;13719;48.188;11.618;2023-12-20T11:16:05;0.95;;;0.80;;
25915;SDS011;13719;48.188;11.618;2023-12-20T11:18:34;1.38;;;0.90;;
25915;SDS011;13719;48.188;11.618;2023-12-20T11:21:04;1.35;;;0.90;;
25915;SDS011;13719;48.188;11.618;2023-12-20T11:23:33;0.70;;;0.70;;
25915;SDS011;13719;48.188;11.618;2023-12-20T11:26:02;0.80;;;0.80;;
25915;SDS011;13719;48.188;11.618;2023-12-20T11:28:32;1.80;;;0.90;;
25915;SDS011;13719;48.188;11.618;2023-12-20T11:31:01;1.30;;;0.98;;
25915;SDS011;13719;48.188;11.618;2023-12-20T11:33:30;1.15;;;1.02;;
25915;SDS011;13719;48.188;11.618;2023-12-20T11:35:59;1.20;;;0.90;;
25915;SDS011;13719;48.188;11.618;2023-12-20T11:38:35;1.15;;;1.00;;
25915;SDS011;13719;48.188;11.618;2023-12-20T11:41:05;1.10;;;1.00;;
25915;SDS011;13719;48.188;11.618;2023-12-20T11:43:39;1.20;;;0.90;;
25915;SDS011;13719;48.188;11.618;2023-12-20T11:46:07;1.10;;;0.80;;
25915;SDS011;13719;48.188;11.618;2023-12-20T11:48:37;0.95;;;0.90;;
25915;SDS011;13719;48.188;11.618;2023-12-20T11:51:09;0.82;;;0.80;;
25915;SDS011;13719;48.188;11.618;2023-12-20T11:53:38;1.55;;;1.00;;
25915;SDS011;13719;48.188;11.618;2023-12-20T11:56:07;0.90;;;0.90;;
25915;SDS011;13719;48.188;11.618;2023-12-20T11:58:35;1.65;;;1.27;;
25915;SDS011;13719;48.188;11.618;2023-12-20T12:01:05;1.35;;;0.93;;
25915;SDS011;13719;48.188;11.618;2023-12-20T12:03:35;1.10;;;1.00;;
25915;SDS011;13719;48.188;11.618;2023-12-20T12:06:04;1.98;;;1.20;;
25915;SDS011;13719;48.188;11.618;2023-12-20T12:08:35;1.10;;;0.98;;
25915;SDS011;13719;48.188;11.618;2023-12-20T12:11:04;1.73;;;1.02;;
25915;SDS011;13719;48.188;11.618;2023-12-20T12:13:32;1.00;;;0.90;;
25915;SDS011;13719;48.188;11.618;2023-12-20T12:16:02;1.38;;;0.90;;
25915;SDS011;13719;48.188;11.618;2023-12-20T12:18:32;1.65;;;1.23;;
25915;SDS011;13719;48.188;11.618;2023-12-20T12:21:00;2.47;;;0.98;;
25915;SDS011;13719;48.188;11.618;2023-12-20T12:23:38;1.45;;;1.17;;
25915;SDS011;13719;48.188;11.618;2023-12-20T12:26:07;1.15;;;0.90;;
25915;SDS011;13719;48.188;11.618;2023-12-20T12:28:36;1.05;;;0.85;;
25915;SDS011;13719;48.188;11.618;2023-12-20T12:31:04;1.08;;;0.80;;
25915;SDS011;13719;48.188;11.618;2023-12-20T12:33:34;2.10;;;0.88;;
25915;SDS011;13719;48.188;11.618;2023-12-20T12:36:03;1.83;;;0.90;;
25915;SDS011;13719;48.188;11.618;2023-12-20T12:38:33;0.80;;;0.70;;
25915;SDS011;13719;48.188;11.618;2023-12-20T12:41:02;1.83;;;1.15;;
25915;SDS011;13719;48.188;11.618;2023-12-20T12:43:30;1.67;;;1.10;;
25915;SDS011;13719;48.188;11.618;2023-12-20T12:46:02;0.82;;;0.80;;
25915;SDS011;13719;48.188;11.618;2023-12-20T12:48:30;1.27;;;1.00;;
25915;SDS011;13719;48.188;11.618;2023-12-20T12:51:03;1.77;;;1.02;;
25915;SDS011;13719;48.188;11.618;2023-12-20T12:53:33;1.70;;;1.10;;
25915;SDS011;13719;48.188;11.618;2023-12-20T12:56:02;1.60;;;1.10;;
25915;SDS011;13719;48.188;11.618;2023-12-20T12:58:30;1.70;;;1.13;;
25915;SDS011;13719;48.188;11.618;2023-12-20T13:00:59;1.95;;;1.27;;
25915;SDS011;13719;48.188;11.618;2023-12-20T13:03:27;1.83;;;1.38;;
25915;SDS011;13719;48.188;11.618;2023-12-20T13:05:56;1.27;;;1.05;;
25915;SDS011;13719;48.188;11.618;2023-12-20T13:08:26;1.67;;;1.17;;
25915;SDS011;13719;48.188;11.618;2023-12-20T13:10:55;1.73;;;1.13;;
25915;SDS011;13719;48.188;11.618;2023-12-20T13:13:27;1.45;;;1.17;;
25915;SDS011;13719;48.188;11.618;2023-12-20T13:15:56;1.15;;;1.00;;
25915;SDS011;13719;48.188;11.618;2023-12-20T13:18:24;1.02;;;1.00;;
25915;SDS011;13719;48.188;11.618;2023-12-20T13:20:53;1.38;;;1.10;;
25915;SDS011;13719;48.188;11.618;2023-12-20T13:23:21;1.20;;;0.90;;
25915;SDS011;13719;48.188;11.618;2023-12-20T13:25:51;0.80;;;0.80;;
25915;SDS011;13719;48.188;11.618;2023-12-20T13:28:20;0.98;;;0.82;;
25915;SDS011;13719;48.188;11.618;2023-12-20T13:30:48;1.50;;;1.00;;
25915;SDS011;13719;48.188;11.618;2023-12-20T13:33:17;1.40;;;0.90;;
25915;SDS011;13719;48.188;11.618;2023-12-20T13:35:46;2.53;;;1.30;;
25915;SDS011;13719;48.188;11.618;2023-12-20T13:38:14;1.38;;;1.10;;
25915;SDS011;13719;48.188;11.618;2023-12-20T13:40:43;1.98;;;1.10;;
25915;SDS011;13719;48.188;11.618;2023-12-20T13:43:13;1.25;;;1.15;;
25915;SDS011;13719;48.188;11.618;2023-12-20T13:45:47;1.38;;;1.00;;
25915;SDS011;13719;48.188;11.618;2023-12-20T13:48:15;3.10;;;1.23;;
25915;SDS011;13719;48.188;11.618;2023-12-20T13:50:44;1.70;;;1.30;;
25915;SDS011;13719;48.188;11.618;2023-12-20T13:53:12;1.08;;;0.88;;
25915;SDS011;13719;48.188;11.618;2023-12-20T13:55:41;3.53;;;1.20;;
25915;SDS011;13719;48.188;11.618;2023-12-20T13:58:09;4.25;;;1.75;;
25915;SDS011;13719;48.188;11.618;2023-12-20T14:00:39;1.48;;;1.10;;
25915;SDS011;13719;48.188;11.618;2023-12-20T14:03:08;1.10;;;1.00;;
25915;SDS011;13719;48.188;11.618;2023-12-20T14:05:36;1.70;;;1.25;;
25915;SDS011;13719;48.188;11.618;2023-12-20T14:08:06;1.55;;;0.95;;
25915;SDS011;13719;48.188;11.618;2023-12-20T14:10:35;2.47;;;1.63;;
25915;SDS011;13719;48.188;11.618;2023-12-20T14:13:05;1.20;;;1.10;;
25915;SDS011;13719;48.188;11.618;2023-12-20T14:15:33;3.95;;;1.30;;
25915;SDS011;13719;48.188;11.618;2023-12-20T14:18:05;2.13;;;1.17;;
25915;SDS011;13719;48.188;11.618;2023-12-20T14:20:35;1.58;;;1.20;;
25915;SDS011;13719;48.188;11.618;2023-12-20T14:23:06;4.22;;;1.25;;
25915;SDS011;13719;48.188;11.618;2023-12-20T14:25:35;2.88;;;1.17;;
25915;SDS011;13719;48.188;11.618;2023-12-20T14:28:17;1.90;;;1.40;;
25915;SDS011;13719;48.188;11.618;2023-12-20T14:30:45;2.60;;;1.30;;
25915;SDS011;13719;48.188;11.618;2023-12-20T14:33:17;1.33;;;1.23;;
25915;SDS011;13719;48.188;11.618;2023-12-20T14:35:48;2.35;;;1.23;;
25915;SDS011;13719;48.188;11.618;2023-12-20T14:38:16;3.08;;;1.27;;
25915;SDS011;13719;48.188;11.618;2023-12-20T14:40:45;2.78;;;1.20;;
25915;SDS011;13719;48.188;11.618;2023-12-20T14:43:14;2.28;;;1.15;;
25915;SDS011;13719;48.188;11.618;2023-12-20T14:45:43;1.50;;;1.13;;
25915;SDS011;13719;48.188;11.618;2023-12-20T14:48:11;3.17;;;1.38;;